首页
METAR-TAF:

METAR-TAF

机场 :

兰伯特-圣路易斯国际机场

圣路易斯, 密蘇里州, 美国

纬度: 38-45-09N, 经度: 090-22-25W, 海拔: 184米

当前天气观测

该预报发布于18分钟前的21:51 UTC
静风
温度 7°C
湿度 39%
气压 1031 hPa
能見度: 16.1公里
天空无云

METAR: KSTL 112151Z 00000KT 10SM CLR 07/M06 A3044 RMK AO2 SLP318 T00721056

时间: 16:09 (22:09 UTC)

预报

该预报发布于52分钟前的21:17 UTC
预报有效从11日的 21点(UTC)到 12日的 24点(UTC)
风速4节,风向
能見度: 10公里
天空无云
从 11日的 2300点(UTC)
风速5节,风向东转东北
能見度: 10公里
天空无云
从 12日的 0400点(UTC)
风速7节,风向东南
能見度: 10公里
多云层高于25000英尺
从 12日的 1100点(UTC)
风速8节,风向
能見度: 10公里
多云层高于25000英尺
从 12日的 1600点(UTC)
风速11节,风向,有时为22节阵风
能見度: 10公里
多云层高于25000英尺

TAF: KSTL 112117Z 1121/1224 36004KT P6SM SKC FM112300 07005KT P6SM SKC FM120400 14007KT P6SM BKN250 FM121100 17008KT P6SM BKN250 WS011/21040KT FM121600 19011G22KT P6SM BKN250

超过4000个机场的气象观测和天气预报(METAR&TAF报告)。

可查询的气象台以黄色和红色小点在地图上表示。

将鼠标移到小点上方,可查看气象台名称。

然后点击查看天气观测和预报。

如需切换地图:点击带黑十字的绿色按钮放大地图;点击带横线的绿色按钮缩小地图;或者点击绿色箭头查看邻近地区的地图。


METAR-TAF: